createdAt,value
2022-09-03T00:01:55.285Z,10.70
2022-09-03T00:04:29.370Z,10.60
2022-09-03T00:07:01.173Z,10.60
2022-09-03T00:09:31.955Z,10.60
2022-09-03T00:12:05.987Z,10.80
2022-09-03T00:14:37.074Z,10.90
2022-09-03T00:17:29.481Z,10.80
2022-09-03T00:20:02.127Z,10.70
2022-09-03T00:22:32.557Z,10.50
2022-09-03T00:25:01.259Z,10.70
2022-09-03T00:27:28.661Z,10.80
2022-09-03T00:30:01.667Z,10.90
2022-09-03T00:32:42.484Z,10.80
2022-09-03T00:35:14.953Z,11.10
2022-09-03T00:37:42.094Z,10.90
2022-09-03T00:40:15.773Z,10.90
2022-09-03T00:42:55.731Z,10.80
2022-09-03T00:45:39.117Z,10.90
2022-09-03T00:48:17.359Z,10.60
2022-09-03T00:51:02.993Z,10.90
2022-09-03T00:54:14.763Z,10.70
2022-09-03T00:56:59.556Z,10.70
2022-09-03T00:59:59.143Z,10.80
2022-09-03T01:03:08.181Z,10.70
2022-09-03T01:06:06.109Z,10.70
2022-09-03T01:09:03.502Z,10.70
2022-09-03T01:11:47.353Z,10.60
2022-09-03T01:14:31.787Z,10.80
2022-09-03T01:17:17.429Z,10.60
2022-09-03T01:19:56.593Z,10.70
2022-09-03T01:22:48.721Z,10.40
2022-09-03T01:25:38.800Z,10.40
2022-09-03T01:28:20.816Z,10.20
2022-09-03T01:31:03.133Z,10.20
2022-09-03T01:33:44.728Z,10.20
2022-09-03T01:36:17.051Z,10.20
2022-09-03T01:39:03.997Z,10.50
2022-09-03T01:42:02.659Z,10.40
2022-09-03T01:44:33.057Z,10.20
2022-09-03T01:47:17.671Z,10.40
2022-09-03T01:49:51.591Z,10.50
2022-09-03T01:52:26.400Z,10.50
2022-09-03T01:55:39.236Z,10.40
2022-09-03T01:58:21.949Z,10.30
2022-09-03T02:00:57.120Z,9.90
2022-09-03T02:03:24.652Z,9.80
2022-09-03T02:05:53.297Z,9.80
2022-09-03T02:08:21.056Z,10.10
2022-09-03T02:10:50.447Z,10.10
2022-09-03T02:13:22.136Z,10.30
2022-09-03T02:15:49.897Z,10.40
2022-09-03T02:18:22.967Z,10.40
2022-09-03T02:20:50.255Z,10.00
2022-09-03T02:23:17.452Z,9.80
2022-09-03T02:25:58.730Z,10.00
2022-09-03T02:28:26.770Z,10.20
2022-09-03T02:30:54.615Z,10.00
2022-09-03T02:33:22.322Z,9.80
2022-09-03T02:35:49.620Z,9.90
2022-09-03T02:38:19.555Z,10.00
2022-09-03T02:40:46.911Z,9.90
2022-09-03T02:43:17.799Z,9.60
2022-09-03T02:45:48.948Z,9.60
2022-09-03T02:48:18.005Z,9.50
2022-09-03T02:50:45.175Z,9.60
2022-09-03T02:53:12.428Z,9.70
2022-09-03T02:55:39.660Z,9.70
2022-09-03T02:58:07.364Z,9.80
2022-09-03T03:00:36.251Z,9.70
2022-09-03T03:03:06.003Z,9.60
2022-09-03T03:05:43.571Z,9.50
2022-09-03T03:08:12.631Z,9.40
2022-09-03T03:10:40.275Z,9.50
2022-09-03T03:13:07.598Z,9.50
2022-09-03T03:15:34.747Z,9.50
2022-09-03T03:18:01.931Z,9.30
2022-09-03T03:20:29.344Z,9.10
2022-09-03T03:22:56.467Z,9.10
2022-09-03T03:25:23.671Z,9.40
2022-09-03T03:27:50.876Z,9.40
2022-09-03T03:30:19.382Z,9.20
2022-09-03T03:32:47.197Z,9.50
2022-09-03T03:35:14.431Z,9.50
2022-09-03T03:37:41.759Z,9.70
2022-09-03T03:40:09.576Z,9.50
2022-09-03T03:42:36.954Z,9.40
2022-09-03T03:45:05.242Z,9.10
2022-09-03T03:47:32.354Z,9.10
2022-09-03T03:49:59.913Z,9.00
2022-09-03T03:52:27.053Z,8.90
2022-09-03T03:54:54.467Z,8.90
2022-09-03T03:57:23.511Z,9.20
2022-09-03T03:59:50.743Z,9.10
2022-09-03T04:02:18.308Z,9.00
2022-09-03T04:04:45.981Z,9.00
2022-09-03T04:07:13.223Z,8.90
2022-09-03T04:09:40.473Z,9.00
2022-09-03T04:12:08.854Z,9.10
2022-09-03T04:14:36.086Z,9.10
2022-09-03T04:17:03.442Z,9.10
2022-09-03T04:19:30.713Z,9.20
2022-09-03T04:21:57.882Z,9.10
2022-09-03T04:24:25.132Z,9.00
2022-09-03T04:26:54.210Z,8.80
2022-09-03T04:29:22.189Z,9.00
2022-09-03T04:32:07.885Z,8.80
2022-09-03T04:34:35.286Z,8.80
2022-09-03T04:37:02.676Z,8.70
2022-09-03T04:39:30.055Z,8.80
2022-09-03T04:41:59.737Z,8.90
2022-09-03T04:44:27.358Z,9.00
2022-09-03T04:46:54.456Z,9.10
2022-09-03T04:49:21.669Z,8.90
2022-09-03T04:51:49.068Z,9.00
2022-09-03T04:54:16.474Z,9.20
2022-09-03T04:56:43.750Z,9.30
2022-09-03T04:59:10.936Z,9.40
2022-09-03T05:01:39.001Z,9.30
2022-09-03T05:04:07.178Z,9.00
2022-09-03T05:06:34.558Z,9.30
2022-09-03T05:09:02.060Z,9.20
2022-09-03T05:11:29.589Z,9.00
2022-09-03T05:13:58.245Z,8.90
2022-09-03T05:16:26.160Z,8.90
2022-09-03T05:18:54.409Z,9.00
2022-09-03T05:21:22.478Z,9.20
2022-09-03T05:23:50.842Z,9.30
2022-09-03T05:26:28.609Z,9.30
2022-09-03T05:28:57.252Z,9.50
2022-09-03T05:31:26.622Z,9.80
2022-09-03T05:33:58.715Z,9.80
2022-09-03T05:36:30.485Z,9.90
2022-09-03T05:38:58.837Z,10.10
2022-09-03T05:41:26.389Z,10.20
2022-09-03T05:43:59.423Z,10.40
2022-09-03T05:46:33.847Z,10.60
2022-09-03T05:49:02.332Z,10.60
2022-09-03T05:51:30.213Z,10.70
2022-09-03T05:53:57.873Z,10.70
2022-09-03T05:56:26.202Z,10.80
2022-09-03T05:58:54.561Z,10.90
2022-09-03T06:01:22.767Z,11.00
2022-09-03T06:04:00.618Z,11.10
2022-09-03T06:06:28.585Z,11.30
2022-09-03T06:08:56.673Z,11.40
2022-09-03T06:11:28.348Z,11.40
2022-09-03T06:13:56.807Z,11.60
2022-09-03T06:16:27.229Z,11.90
2022-09-03T06:18:59.862Z,12.10
2022-09-03T06:21:27.218Z,12.20
2022-09-03T06:23:58.422Z,12.30
2022-09-03T06:26:29.339Z,12.60
2022-09-03T06:28:57.232Z,12.80
2022-09-03T06:31:24.709Z,13.10
2022-09-03T06:33:53.135Z,13.30
2022-09-03T06:36:20.631Z,13.40
2022-09-03T06:38:47.997Z,13.50
2022-09-03T06:41:26.132Z,13.70
2022-09-03T06:43:54.940Z,14.10
2022-09-03T06:46:24.009Z,14.70
2022-09-03T06:48:51.847Z,15.40
2022-09-03T06:51:20.667Z,16.00
2022-09-03T06:53:49.903Z,16.70
2022-09-03T06:56:19.315Z,17.10
2022-09-03T06:58:47.597Z,17.70
2022-09-03T07:01:28.530Z,18.00
2022-09-03T07:03:57.250Z,18.50
2022-09-03T07:06:25.776Z,18.40
2022-09-03T07:08:53.225Z,18.70
2022-09-03T07:11:23.066Z,18.70
2022-09-03T07:13:51.879Z,18.90
2022-09-03T07:16:21.027Z,19.50
2022-09-03T07:18:48.957Z,19.90
2022-09-03T07:21:17.931Z,19.80
2022-09-03T07:23:45.302Z,20.30
2022-09-03T07:26:14.368Z,20.20
2022-09-03T07:28:42.688Z,20.50
2022-09-03T07:31:15.349Z,20.60
2022-09-03T07:33:42.886Z,20.50
2022-09-03T07:36:15.173Z,20.50
2022-09-03T07:38:44.956Z,20.60
2022-09-03T07:41:13.040Z,20.50
2022-09-03T07:43:49.109Z,20.20
2022-09-03T07:46:23.402Z,19.50
2022-09-03T07:48:57.958Z,19.60
2022-09-03T07:51:27.043Z,19.60
2022-09-03T07:53:58.634Z,19.70
2022-09-03T07:56:27.155Z,19.80
2022-09-03T07:58:57.170Z,19.60
2022-09-03T08:01:25.389Z,19.40
2022-09-03T08:03:53.514Z,19.40
2022-09-03T08:06:22.892Z,19.50
2022-09-03T08:08:54.293Z,19.50
2022-09-03T08:11:22.149Z,19.60
2022-09-03T08:14:01.908Z,19.50
2022-09-03T08:16:30.187Z,19.80
2022-09-03T08:18:57.527Z,19.80
2022-09-03T08:21:25.023Z,19.60
2022-09-03T08:23:53.331Z,19.50
2022-09-03T08:26:21.035Z,19.30
2022-09-03T08:28:48.868Z,19.40
2022-09-03T08:31:22.554Z,19.50
2022-09-03T08:33:53.884Z,19.80
2022-09-03T08:36:25.818Z,20.00
2022-09-03T08:38:55.372Z,20.10
2022-09-03T08:41:43.681Z,20.20
2022-09-03T08:44:21.084Z,20.20
2022-09-03T08:46:58.362Z,20.10
2022-09-03T08:49:31.740Z,20.10
2022-09-03T08:51:59.554Z,20.20
2022-09-03T08:54:28.148Z,20.00
2022-09-03T08:56:55.656Z,19.90
2022-09-03T08:59:27.043Z,20.00
2022-09-03T09:02:17.738Z,19.80
2022-09-03T09:05:06.251Z,20.00
2022-09-03T09:07:53.581Z,20.10
2022-09-03T09:10:29.620Z,20.30
2022-09-03T09:13:28.271Z,20.30
2022-09-03T09:16:03.500Z,20.40
2022-09-03T09:18:49.541Z,20.50
2022-09-03T09:21:26.214Z,20.50
2022-09-03T09:23:54.939Z,20.70
2022-09-03T09:26:22.538Z,21.10
2022-09-03T09:28:58.609Z,21.20
2022-09-03T09:31:26.442Z,21.20
2022-09-03T09:33:54.855Z,21.20
2022-09-03T09:36:22.101Z,21.40
2022-09-03T09:38:49.649Z,21.30
2022-09-03T09:41:18.702Z,21.30
2022-09-03T09:43:48.199Z,21.20
2022-09-03T09:46:22.970Z,21.20
2022-09-03T09:48:59.087Z,21.20
2022-09-03T09:51:31.052Z,20.90
2022-09-03T09:54:02.807Z,20.90
2022-09-03T09:56:30.165Z,21.30
2022-09-03T09:59:05.255Z,21.50
2022-09-03T10:01:32.662Z,21.60
2022-09-03T10:04:00.977Z,21.70
2022-09-03T10:06:48.481Z,21.70
2022-09-03T10:09:17.875Z,22.00
2022-09-03T10:11:54.241Z,22.20
2022-09-03T10:14:32.723Z,22.30
2022-09-03T10:17:37.189Z,22.40
2022-09-03T10:20:49.123Z,22.30
2022-09-03T10:23:28.473Z,22.40
2022-09-03T10:26:13.526Z,22.30
2022-09-03T10:28:44.092Z,22.40
2022-09-03T10:31:31.818Z,22.30
2022-09-03T10:34:14.917Z,22.10
2022-09-03T10:37:06.567Z,22.40
2022-09-03T10:40:09.568Z,22.50
2022-09-03T10:42:45.987Z,22.40
2022-09-03T10:45:50.490Z,22.40
2022-09-03T10:48:20.319Z,22.40
2022-09-03T10:50:49.907Z,22.50
2022-09-03T10:53:41.529Z,22.50
2022-09-03T10:56:40.110Z,22.60
2022-09-03T10:59:40.192Z,22.80
2022-09-03T11:02:52.639Z,22.60
2022-09-03T11:05:31.547Z,22.60
2022-09-03T11:08:32.795Z,22.80
2022-09-03T11:11:22.528Z,22.60
2022-09-03T11:14:02.852Z,22.90
2022-09-03T11:16:32.801Z,22.70
2022-09-03T11:19:11.648Z,23.00
2022-09-03T11:21:39.493Z,23.10
2022-09-03T11:24:13.458Z,22.90
2022-09-03T11:26:45.232Z,23.00
2022-09-03T11:29:38.379Z,22.90
2022-09-03T11:32:43.328Z,22.70
2022-09-03T11:35:28.654Z,23.10
2022-09-03T11:38:03.325Z,23.00
2022-09-03T11:40:34.271Z,23.20
2022-09-03T11:43:08.162Z,23.10
2022-09-03T11:45:37.659Z,23.30
2022-09-03T11:48:18.747Z,23.10
2022-09-03T11:50:55.482Z,23.20
2022-09-03T11:53:30.352Z,23.00
2022-09-03T11:56:05.461Z,23.10
2022-09-03T11:58:37.259Z,23.10
2022-09-03T12:01:16.373Z,23.40
2022-09-03T12:03:49.193Z,23.20
2022-09-03T12:06:42.414Z,23.20
2022-09-03T12:09:13.933Z,23.00
2022-09-03T12:11:55.816Z,23.10
2022-09-03T12:14:32.003Z,23.20
2022-09-03T12:17:24.712Z,23.20
2022-09-03T12:19:56.109Z,23.20
2022-09-03T12:22:28.888Z,23.30
2022-09-03T12:24:56.487Z,23.40
2022-09-03T12:27:25.790Z,23.80
2022-09-03T12:30:00.582Z,23.40
2022-09-03T12:32:32.711Z,23.60
2022-09-03T12:35:11.602Z,23.40
2022-09-03T12:40:28.643Z,23.60
2022-09-03T12:48:39.466Z,23.50
2022-09-03T12:53:55.121Z,23.70
2022-09-03T12:56:22.721Z,23.50
2022-09-03T12:58:56.244Z,23.60
2022-09-03T13:01:31.181Z,23.70
2022-09-03T13:04:10.273Z,23.60
2022-09-03T13:06:57.024Z,23.70
2022-09-03T13:09:24.887Z,23.70
2022-09-03T13:11:52.753Z,23.40
2022-09-03T13:14:20.263Z,23.60
2022-09-03T13:16:47.486Z,23.70
2022-09-03T13:19:51.903Z,23.80
2022-09-03T13:23:10.336Z,23.90
2022-09-03T13:25:53.158Z,24.20
2022-09-03T13:28:40.358Z,24.20
2022-09-03T13:32:05.349Z,24.10
2022-09-03T13:35:00.333Z,23.90
2022-09-03T13:37:53.186Z,24.00
2022-09-03T13:40:29.578Z,24.00
2022-09-03T13:43:17.074Z,23.90
2022-09-03T13:45:57.176Z,23.70
2022-09-03T13:48:58.638Z,23.70
2022-09-03T13:51:51.465Z,23.80
2022-09-03T13:54:48.022Z,23.70
2022-09-03T13:57:35.049Z,23.60
2022-09-03T14:00:10.903Z,23.30
2022-09-03T14:02:41.173Z,23.30
2022-09-03T14:05:24.234Z,23.30
2022-09-03T14:08:03.387Z,23.30
2022-09-03T14:10:53.879Z,23.20
2022-09-03T14:13:46.890Z,23.10
2022-09-03T14:16:38.447Z,23.20
2022-09-03T14:19:21.968Z,23.20
2022-09-03T14:21:56.583Z,23.20
2022-09-03T14:24:50.248Z,23.30
2022-09-03T14:27:27.986Z,23.30
2022-09-03T14:30:06.769Z,23.10
2022-09-03T14:32:51.843Z,22.80
2022-09-03T14:35:45.961Z,23.00
2022-09-03T14:38:28.102Z,23.00
2022-09-03T14:41:07.284Z,23.10
2022-09-03T14:43:42.931Z,23.10
2022-09-03T14:46:23.374Z,23.00
2022-09-03T14:48:56.486Z,23.10
2022-09-03T14:51:32.626Z,23.20
2022-09-03T14:54:33.846Z,23.10
2022-09-03T14:57:25.527Z,23.00
2022-09-03T15:00:18.363Z,22.90
2022-09-03T15:03:21.752Z,22.90
2022-09-03T15:05:54.924Z,23.00
2022-09-03T15:08:40.624Z,22.90
2022-09-03T15:11:29.472Z,23.00
2022-09-03T15:14:08.937Z,22.70
2022-09-03T15:16:53.598Z,22.60
2022-09-03T15:19:54.416Z,22.70
2022-09-03T15:23:03.619Z,22.90
2022-09-03T15:26:08.146Z,22.80
2022-09-03T15:28:54.027Z,22.50
2022-09-03T15:31:44.383Z,22.50
2022-09-03T15:34:49.345Z,22.50
2022-09-03T15:37:27.343Z,22.50
2022-09-03T15:40:05.439Z,22.30
2022-09-03T15:42:32.787Z,22.20
2022-09-03T15:45:35.724Z,22.30
2022-09-03T15:48:32.708Z,22.50
2022-09-03T15:51:20.193Z,22.50
2022-09-03T15:53:55.132Z,22.50
2022-09-03T15:56:31.256Z,22.30
2022-09-03T15:59:17.047Z,22.20
2022-09-03T16:02:13.283Z,22.10
2022-09-03T16:04:55.831Z,22.20
2022-09-03T16:07:49.322Z,22.20
2022-09-03T16:10:24.600Z,22.20
2022-09-03T16:13:19.526Z,22.20
2022-09-03T16:16:06.759Z,22.10
2022-09-03T16:18:39.904Z,22.00
2022-09-03T16:21:13.902Z,22.10
2022-09-03T16:24:18.113Z,22.00
2022-09-03T16:27:10.058Z,22.00
2022-09-03T16:29:39.892Z,21.80
2022-09-03T16:32:21.999Z,21.80
2022-09-03T16:35:12.764Z,21.90
2022-09-03T16:38:00.012Z,21.80
2022-09-03T16:40:43.128Z,21.70
2022-09-03T16:43:40.752Z,21.70
2022-09-03T16:46:35.978Z,21.70
2022-09-03T16:49:37.460Z,21.70
2022-09-03T16:52:38.527Z,21.60
2022-09-03T16:55:31.946Z,21.40
2022-09-03T16:58:15.241Z,21.50
2022-09-03T17:01:07.195Z,21.40
2022-09-03T17:03:50.121Z,21.40
2022-09-03T17:06:46.077Z,21.40
2022-09-03T17:09:34.254Z,21.30
2022-09-03T17:12:39.044Z,21.10
2022-09-03T17:15:50.352Z,21.00
2022-09-03T17:18:26.171Z,21.00
2022-09-03T17:21:04.313Z,20.90
2022-09-03T17:23:38.868Z,21.00
2022-09-03T17:26:13.747Z,20.90
2022-09-03T17:28:47.549Z,20.80
2022-09-03T17:31:37.613Z,20.70
2022-09-03T17:34:14.128Z,20.80
2022-09-03T17:37:03.270Z,20.70
2022-09-03T17:39:54.969Z,20.70
2022-09-03T17:42:33.725Z,20.60
2022-09-03T17:45:22.662Z,20.50
2022-09-03T17:48:07.796Z,20.40
2022-09-03T17:50:47.788Z,20.20
2022-09-03T17:53:21.248Z,20.20
2022-09-03T17:55:53.972Z,19.90
2022-09-03T17:58:36.371Z,20.00
2022-09-03T18:01:17.553Z,19.90
2022-09-03T18:03:54.545Z,19.70
2022-09-03T18:06:35.417Z,19.70
2022-09-03T18:09:04.181Z,19.50
2022-09-03T18:11:39.378Z,19.60
2022-09-03T18:14:13.196Z,19.60
2022-09-03T18:16:52.443Z,19.60
2022-09-03T18:19:31.613Z,19.50
2022-09-03T18:22:21.095Z,19.20
2022-09-03T18:25:15.145Z,19.20
2022-09-03T18:28:26.094Z,19.30
2022-09-03T18:31:12.043Z,19.40
2022-09-03T18:33:57.902Z,19.40
2022-09-03T18:36:43.695Z,19.40
2022-09-03T18:39:46.048Z,19.50
2022-09-03T18:42:50.404Z,19.60
2022-09-03T18:46:17.570Z,19.50
2022-09-03T18:49:24.634Z,19.40
2022-09-03T18:52:29.087Z,19.40
2022-09-03T18:55:23.701Z,19.40
2022-09-03T18:58:35.180Z,19.40
2022-09-03T19:01:28.082Z,19.40
2022-09-03T19:04:17.146Z,19.40
2022-09-03T19:07:17.573Z,19.30
2022-09-03T19:10:19.785Z,19.30
2022-09-03T19:13:16.835Z,19.20
2022-09-03T19:16:37.773Z,19.20
2022-09-03T19:19:43.589Z,19.20
2022-09-03T19:22:30.180Z,19.10
2022-09-03T19:25:23.800Z,19.20
2022-09-03T19:28:21.342Z,19.10
2022-09-03T19:31:16.622Z,19.20
2022-09-03T19:34:23.466Z,19.30
2022-09-03T19:37:36.472Z,19.20
2022-09-03T19:40:43.594Z,19.10
2022-09-03T19:43:59.955Z,19.10
2022-09-03T19:46:48.365Z,19.00
2022-09-03T19:50:07.558Z,18.80
2022-09-03T19:53:23.900Z,18.50
2022-09-03T19:56:13.638Z,18.50
2022-09-03T19:59:07.977Z,18.20
2022-09-03T20:01:55.438Z,18.00
2022-09-03T20:05:10.070Z,18.00
2022-09-03T20:07:55.832Z,18.20
2022-09-03T20:10:22.716Z,18.00
2022-09-03T20:13:03.940Z,18.00
2022-09-03T20:15:38.811Z,18.00
2022-09-03T20:18:16.451Z,17.90
2022-09-03T20:21:03.698Z,18.00
2022-09-03T20:23:32.642Z,18.00
2022-09-03T20:26:14.562Z,18.00
2022-09-03T20:28:56.082Z,18.00
2022-09-03T20:31:24.487Z,18.00
2022-09-03T20:34:06.816Z,18.00
2022-09-03T20:36:51.838Z,17.90
2022-09-03T20:39:25.690Z,17.80
2022-09-03T20:42:28.739Z,17.80
2022-09-03T20:45:06.855Z,17.70
2022-09-03T20:47:57.288Z,17.60
2022-09-03T20:50:36.660Z,17.70
2022-09-03T20:53:16.951Z,17.60
2022-09-03T20:55:45.262Z,17.60
2022-09-03T20:58:20.936Z,17.40
2022-09-03T21:01:01.282Z,17.50
2022-09-03T21:04:00.234Z,17.60
2022-09-03T21:07:07.975Z,17.60
2022-09-03T21:09:41.230Z,17.60
2022-09-03T21:12:55.122Z,17.50
2022-09-03T21:15:57.399Z,17.60
2022-09-03T21:18:29.979Z,17.30
2022-09-03T21:21:10.052Z,17.40
2022-09-03T21:23:42.560Z,17.50
2022-09-03T21:26:25.807Z,17.30
2022-09-03T21:29:27.254Z,17.30
2022-09-03T21:32:13.397Z,17.30
2022-09-03T21:34:49.583Z,17.40
2022-09-03T21:37:16.739Z,17.40
2022-09-03T21:39:51.928Z,17.40
2022-09-03T21:42:42.260Z,17.50
2022-09-03T21:45:29.789Z,17.40
2022-09-03T21:48:18.685Z,17.40
2022-09-03T21:50:56.784Z,17.40
2022-09-03T21:53:54.327Z,17.30
2022-09-03T21:56:40.252Z,17.20
2022-09-03T21:59:42.310Z,17.20
2022-09-03T22:02:30.231Z,17.30
2022-09-03T22:04:58.127Z,17.20
2022-09-03T22:07:53.548Z,17.20
2022-09-03T22:10:34.895Z,17.20
2022-09-03T22:13:26.268Z,17.20
2022-09-03T22:15:56.238Z,17.10
2022-09-03T22:18:28.965Z,17.20
2022-09-03T22:21:13.441Z,17.20
2022-09-03T22:23:55.711Z,17.10
2022-09-03T22:26:45.336Z,17.20
2022-09-03T22:29:18.318Z,17.20
2022-09-03T22:32:03.678Z,17.10
2022-09-03T22:34:46.543Z,16.90
2022-09-03T22:37:35.904Z,16.90
2022-09-03T22:40:21.488Z,16.80
2022-09-03T22:42:57.400Z,16.90
2022-09-03T22:45:51.322Z,16.90
2022-09-03T22:48:30.493Z,17.00
2022-09-03T22:50:58.303Z,17.00
2022-09-03T22:54:02.081Z,16.90
2022-09-03T22:56:31.291Z,16.80
2022-09-03T22:59:11.664Z,16.90
2022-09-03T23:01:38.778Z,16.90
2022-09-03T23:04:51.121Z,16.90
2022-09-03T23:07:39.211Z,17.00
2022-09-03T23:10:12.471Z,16.80
2022-09-03T23:12:50.707Z,16.80
2022-09-03T23:15:20.870Z,16.80
2022-09-03T23:17:51.877Z,16.80
2022-09-03T23:20:26.309Z,16.70
2022-09-03T23:23:17.109Z,16.70
2022-09-03T23:26:12.329Z,16.70
2022-09-03T23:28:48.216Z,16.50
2022-09-03T23:31:20.065Z,16.60
2022-09-03T23:33:48.008Z,16.50
2022-09-03T23:37:01.580Z,16.40
2022-09-03T23:39:43.325Z,16.40
2022-09-03T23:42:32.018Z,16.40
2022-09-03T23:44:59.195Z,16.50
2022-09-03T23:47:35.021Z,16.50
2022-09-03T23:50:02.236Z,16.40
2022-09-03T23:52:53.197Z,16.40
2022-09-03T23:55:20.365Z,16.40
2022-09-03T23:57:58.521Z,16.40
